Warning: Javascript must be enabled to use all the features on this page!


Page Loading - Please Wait...

Click to hideNews Bulletins

Peak Streamflow for the Nation

USGS 09423350 CARUTHERS C NR IVANPAH CA

San Bernardino County, California
Hydrologic Unit Code 15030102
Latitude  35°14'42", Longitude 115°17'53" NAD27
Drainage area 0.84  square miles
Gage datum 5,640 feet above NGVD29
Output formats
Table
Graph
Tab-separated file
peakfq (watstore) format
Reselect output format
Water
Year
Date Gage
Height
(feet)
Stream-
flow
(cfs)
1964 1963-10-18   5.002
1965 1965-08-15 3.75 2302
1966 1966-07-26 3.46 1742
1967 1966-12-07 1.97 24.0
1968 1967-12-23 1.36 3.50
1969 1969-08-25 4.77 5182
1970 1970-03-01 1.32 0.65
1971 1971-08-15 2.95 1022
1972 1972-06-07 1.67 6.20
1973 1973-03-07 1.47 2.80
1974 1974-01-12 1.73 13.0
1975 1975-04-11 1.39 0.44
1976 1976-02-09 3.34 92.02
1977 1976-10-01 4.95 3832
1978 1978-03-04 2.55 71.02
1979 1979-08-12 5.75 814
1980 1980-02-14 2.70 52.02
1981 1981-03-07 1.24 3.10
1982 1982-08-25 5.22 6142
1983 1983-03-02 2.67 77.02
1984 1984-07-21 5.38 6712
1985 1985-07-19 3.06 1202
1986 1985-11-29 0.98 1.50
1987 1987-04-29 1.17 3.70
1988 1988-08-24 3.95 2632
1989 1989-01-04 1.30 5.80
1990 1990-07-14 3.02 1142
1991 1991-03-01 1.79 20.0
1992 1992-03-27 2.06 33.0
1993 1993-08-25 3.11 1252
1994 1994-01-25 0.99 1.60
1995 1995-01-25 1.82 21.0
1996 1996-07-15 9.75  
1997 1997-09-25 1.35 16.0
1998 1998-09-06 1.64 43.0
1999 1999-07-15 1.56 12.0
2000 2000-02-21 1.44 23.0
2001 2001-03-07 1.03 4.00
2002 2002-07-18 0.96 3.20
2003 2003-09-05 1.23 6.90
2004 2004-02-26 1.08 7.60
2005 2004-12-29 2.94 105
2006 2006-07-04 1.33 8.80
2007 2007-08-01 2.80 90.0
2008 2007-12-01 1.28 7.80
2009 2009-08-23 1.67 18.0
2010 2010-02-06 0.84 2.70
2011 2010-12-22 2.04 35.0
2012 2011-12-18 0.11 0.03
2013 2013-08-24 2.27 47.0
2014 2014-08-03 3.20 136
2015 2015-08-27 2.22 44.0
2016 2016-08-04 1.28 7.80
2017 2017-02-18 1.28 7.83
2018 2018-07-13 1.60 15.7
2019 2019-02-14 1.52 13.4
2020 2020-03-12 1.31 8.41
2021 2021-08-13 3.24 142
?
  Peak Streamflow Qualification Codes.